Time;durP1;ratioP1;P1;durP2;ratioP2;P2;SDS_P1;SDS_P2;PMS_P1;PMS_P2;Temp;Humidity;BMP_temperature;BMP_pressure;BME280_temperature;BME280_humidity;BME280_pressure;Samples;Min_cycle;Max_cycle;Signal;HPM_P1;HPM_P2
2021/12/27 00:00:22;;;;;;;21.30;12.32;;;;;;;4.91;85.80;95602.09;4935069;29;20132;-77
2021/12/27 00:02:54;;;;;;;23.90;13.88;;;;;;;4.92;86.13;95602.91;4935289;29;20051;-77
2021/12/27 00:05:22;;;;;;;25.08;14.07;;;;;;;4.93;85.90;95591.59;4935019;29;20510;-78
2021/12/27 00:07:51;;;;;;;27.13;14.23;;;;;;;4.93;85.46;95597.56;4934547;29;20055;-78
2021/12/27 00:10:20;;;;;;;24.25;14.27;;;;;;;4.91;85.55;95599.50;4935053;29;20418;-78
2021/12/27 00:12:48;;;;;;;26.25;15.27;;;;;;;4.89;85.75;95590.31;4934995;29;20051;-77
2021/12/27 00:15:17;;;;;;;24.00;14.63;;;;;;;4.88;85.58;95588.72;4935011;29;20059;-78
2021/12/27 00:17:47;;;;;;;24.85;14.70;;;;;;;4.87;85.79;95587.88;4934562;29;20051;-78
2021/12/27 00:20:17;;;;;;;22.70;13.77;;;;;;;4.85;85.70;95587.25;4934749;29;20059;-78
2021/12/27 00:22:46;;;;;;;28.83;14.90;;;;;;;4.81;85.56;95578.25;4934950;29;20052;-77
2021/12/27 00:25:14;;;;;;;26.65;16.20;;;;;;;4.82;85.85;95579.06;4934978;29;20059;-78
2021/12/27 00:27:43;;;;;;;30.58;16.15;;;;;;;4.82;85.81;95579.84;4938510;29;20056;-77
2021/12/27 00:30:12;;;;;;;27.45;14.80;;;;;;;4.83;85.73;95584.06;4938877;29;20457;-77
2021/12/27 00:32:43;;;;;;;23.27;14.32;;;;;;;4.85;86.02;95591.63;4938696;29;20063;-78
2021/12/27 00:35:14;;;;;;;23.20;14.40;;;;;;;4.86;85.58;95586.31;4938581;29;20056;-77
2021/12/27 00:37:42;;;;;;;26.95;15.20;;;;;;;4.86;85.69;95585.50;4938697;29;20051;-78
2021/12/27 00:40:12;;;;;;;25.58;14.85;;;;;;;4.87;85.81;95581.94;4939258;29;20055;-78
2021/12/27 00:42:40;;;;;;;21.58;13.50;;;;;;;4.86;85.63;95570.00;4938516;29;20509;-77
2021/12/27 00:45:08;;;;;;;22.85;14.50;;;;;;;4.86;85.79;95570.00;4938381;29;20055;-77
2021/12/27 00:47:36;;;;;;;25.80;14.98;;;;;;;4.86;86.10;95577.75;4937968;29;20177;-78
2021/12/27 00:50:04;;;;;;;24.88;15.02;;;;;;;4.87;85.75;95579.34;4938263;29;20058;-77
2021/12/27 00:52:35;;;;;;;22.20;14.35;;;;;;;4.87;85.59;95572.38;4938296;29;20062;-78
2021/12/27 00:55:04;;;;;;;22.40;14.07;;;;;;;4.87;85.89;95577.56;4938337;29;20051;-78
2021/12/27 00:57:32;;;;;;;20.45;13.10;;;;;;;4.88;85.63;95579.19;4937838;29;20106;-78
2021/12/27 01:00:00;;;;;;;18.58;11.60;;;;;;;4.93;86.14;95568.31;4937987;29;20059;-77
2021/12/27 01:02:30;;;;;;;20.80;13.13;;;;;;;4.98;85.81;95568.59;4938419;29;20417;-78
2021/12/27 01:04:57;;;;;;;22.40;14.77;;;;;;;5.02;85.92;95556.94;4938394;29;20466;-77
2021/12/27 01:07:25;;;;;;;22.17;14.88;;;;;;;5.04;85.77;95560.16;4938211;29;20066;-78
2021/12/27 01:10:05;;;;;;;21.25;13.75;;;;;;;5.05;85.64;95554.03;4937881;29;20056;-77
2021/12/27 01:12:46;;;;;;;22.13;13.73;;;;;;;5.05;85.46;95563.56;4938190;29;20059;-78
2021/12/27 01:15:33;;;;;;;22.00;13.90;;;;;;;5.02;85.65;95569.88;4937783;29;20051;-78
2021/12/27 01:18:01;;;;;;;22.75;13.55;;;;;;;5.02;85.63;95559.53;4937435;29;20048;-78
2021/12/27 01:20:29;;;;;;;19.15;12.80;;;;;;;5.04;85.49;95556.78;4937678;29;20043;-78
2021/12/27 01:22:57;;;;;;;19.88;12.98;;;;;;;5.04;85.84;95567.13;4937768;29;20102;-77
2021/12/27 01:25:26;;;;;;;21.48;13.85;;;;;;;5.03;85.45;95573.25;4937796;29;20060;-78
2021/12/27 01:27:54;;;;;;;17.15;12.18;;;;;;;5.03;85.65;95576.66;4937804;29;20052;-78
2021/12/27 01:30:23;;;;;;;20.17;13.20;;;;;;;5.05;85.28;95573.88;4937546;29;20059;-77
2021/12/27 01:32:56;;;;;;;18.63;12.98;;;;;;;5.07;85.15;95562.44;4937722;29;20446;-77
2021/12/27 01:35:25;;;;;;;17.77;12.15;;;;;;;5.10;85.13;95572.41;4937355;29;20056;-78
2021/12/27 01:37:54;;;;;;;18.52;11.48;;;;;;;5.11;85.11;95573.22;4935923;29;20438;-77
2021/12/27 01:40:26;;;;;;;19.50;12.18;;;;;;;5.11;85.30;95573.22;4937391;29;20365;-77
2021/12/27 01:43:06;;;;;;;20.38;12.85;;;;;;;5.11;85.07;95568.84;4937328;29;20470;-77
2021/12/27 01:45:35;;;;;;;18.38;12.25;;;;;;;5.09;84.83;95575.16;4937256;29;20062;-78
2021/12/27 01:48:03;;;;;;;17.52;12.43;;;;;;;5.07;84.83;95571.94;4936985;29;20047;-77
2021/12/27 01:50:31;;;;;;;18.00;12.40;;;;;;;5.04;84.97;95572.28;4937257;29;20055;-77
2021/12/27 01:52:58;;;;;;;16.95;12.07;;;;;;;5.00;84.79;95574.41;4937379;29;20056;-77
2021/12/27 01:55:27;;;;;;;17.50;11.38;;;;;;;4.97;84.76;95577.34;4937282;29;20464;-78
2021/12/27 01:57:55;;;;;;;20.85;13.65;;;;;;;4.95;85.00;95585.25;4936720;29;20056;-77
2021/12/27 02:00:23;;;;;;;17.85;12.18;;;;;;;4.93;84.82;95587.22;4936765;29;20502;-77
2021/12/27 02:02:50;;;;;;;17.67;12.40;;;;;;;4.93;84.98;95574.28;4937010;29;20059;-77
2021/12/27 02:05:18;;;;;;;17.10;12.40;;;;;;;4.93;85.13;95582.03;4937070;29;20062;-78
2021/12/27 02:07:46;;;;;;;17.98;12.50;;;;;;;4.93;85.13;95576.88;4936630;29;20055;-77
2021/12/27 02:10:14;;;;;;;19.63;13.30;;;;;;;4.92;84.97;95575.28;4936751;29;20088;-78
2021/12/27 02:12:44;;;;;;;19.45;13.38;;;;;;;4.93;84.92;95579.47;4936873;29;20051;-77
2021/12/27 02:15:13;;;;;;;19.67;13.43;;;;;;;4.96;85.03;95578.31;4936572;29;20056;-77
2021/12/27 02:17:42;;;;;;;20.00;13.52;;;;;;;4.97;85.01;95577.34;4936567;29;20063;-78
2021/12/27 02:20:17;;;;;;;22.55;15.07;;;;;;;4.97;85.26;95576.56;4936683;29;20485;-77
2021/12/27 02:22:46;;;;;;;22.08;14.20;;;;;;;4.98;85.25;95570.41;4936690;29;20421;-77
2021/12/27 02:25:15;;;;;;;21.27;13.82;;;;;;;4.98;85.25;95568.59;4936713;29;20048;-78
2021/12/27 02:27:44;;;;;;;20.25;12.60;;;;;;;5.00;85.16;95571.81;4936378;29;20202;-77
2021/12/27 02:30:17;;;;;;;22.83;14.25;;;;;;;5.02;85.29;95579.41;4936262;29;20059;-77
2021/12/27 02:32:47;;;;;;;21.73;15.40;;;;;;;5.02;85.36;95574.25;4936434;29;20062;-77
2021/12/27 02:35:18;;;;;;;20.92;14.55;;;;;;;5.00;85.17;95561.50;4936332;29;20509;-77
2021/12/27 02:37:46;;;;;;;21.98;15.20;;;;;;;5.00;85.25;95563.28;4936018;29;20051;-78
2021/12/27 02:40:14;;;;;;;21.52;14.68;;;;;;;4.99;84.97;95561.69;4936333;29;20047;-77
2021/12/27 02:43:00;;;;;;;23.20;15.73;;;;;;;4.99;85.31;95562.47;4936340;29;20044;-77
2021/12/27 02:45:29;;;;;;;21.38;13.77;;;;;;;4.99;85.26;95564.25;4936150;29;20055;-77
2021/12/27 02:47:58;;;;;;;21.60;14.55;;;;;;;4.99;85.33;95566.84;4936079;29;20429;-77
2021/12/27 02:50:28;;;;;;;20.55;13.55;;;;;;;5.00;85.40;95565.84;4935690;29;20063;-77
2021/12/27 02:52:56;;;;;;;21.88;15.20;;;;;;;5.02;85.41;95562.13;4936370;29;20123;-77
2021/12/27 02:55:24;;;;;;;20.33;13.98;;;;;;;5.06;85.40;95565.97;4936143;29;20071;-77
2021/12/27 02:57:52;;;;;;;19.75;12.80;;;;;;;5.09;85.09;95568.19;4935772;29;20055;-77
2021/12/27 03:00:42;;;;;;;20.35;13.82;;;;;;;5.12;85.31;95559.31;4935507;29;20498;-77
2021/12/27 03:03:10;;;;;;;22.13;14.88;;;;;;;5.13;84.95;95555.75;4935855;29;20048;-77
2021/12/27 03:05:39;;;;;;;23.70;14.80;;;;;;;5.15;85.18;95556.38;4935895;29;20052;-77
2021/12/27 03:08:13;;;;;;;23.73;15.15;;;;;;;5.14;85.02;95552.19;4935473;29;20062;-77
2021/12/27 03:10:43;;;;;;;22.48;14.93;;;;;;;5.12;85.03;95561.91;4935666;29;20055;-78
2021/12/27 03:13:16;;;;;;;22.83;15.07;;;;;;;5.09;84.88;95555.28;4935725;29;20059;-77
2021/12/27 03:15:44;;;;;;;21.95;14.88;;;;;;;5.06;84.58;95555.63;4935707;29;20059;-78
2021/12/27 03:18:12;;;;;;;19.83;13.18;;;;;;;5.01;84.91;95552.78;4935652;29;20048;-78
2021/12/27 03:20:41;;;;;;;20.55;14.20;;;;;;;4.97;85.13;95556.69;4935480;29;20051;-77
2021/12/27 03:23:09;;;;;;;20.98;13.13;;;;;;;4.94;85.19;95550.06;4935565;29;20052;-77
2021/12/27 03:25:36;;;;;;;22.17;14.38;;;;;;;4.90;84.77;95551.41;4935436;29;20052;-77
2021/12/27 03:28:04;;;;;;;20.70;13.25;;;;;;;4.89;85.32;95548.97;4935191;29;20063;-78
2021/12/27 03:30:32;;;;;;;19.25;13.30;;;;;;;4.85;85.28;95547.69;4935153;29;20510;-78
2021/12/27 03:33:00;;;;;;;22.02;14.05;;;;;;;4.81;85.36;95549.84;4935478;29;20135;-77
2021/12/27 03:35:29;;;;;;;21.73;14.43;;;;;;;4.78;85.31;95547.59;4935336;29;20075;-77
2021/12/27 03:37:59;;;;;;;17.95;13.05;;;;;;;4.77;85.86;95546.00;4935146;29;20047;-77
2021/12/27 03:40:27;;;;;;;18.73;12.38;;;;;;;4.75;85.65;95548.72;4934921;29;20054;-77
2021/12/27 03:42:56;;;;;;;19.52;12.93;;;;;;;4.76;85.57;95544.38;4935324;29;20047;-76
2021/12/27 03:45:27;;;;;;;16.30;11.48;;;;;;;4.77;85.90;95555.50;4935744;29;20504;-78
2021/12/27 03:47:55;;;;;;;20.23;13.20;;;;;;;4.76;85.88;95554.69;4937102;29;20055;-78
2021/12/27 03:50:24;;;;;;;19.95;12.98;;;;;;;4.74;86.02;95554.88;4935704;29;20047;-78
2021/12/27 03:52:53;;;;;;;19.38;12.80;;;;;;;4.74;85.65;95544.56;4935239;29;20051;-77
2021/12/27 03:55:23;;;;;;;18.75;12.73;;;;;;;4.74;85.88;95541.97;4935266;29;20047;-78
2021/12/27 03:57:54;;;;;;;19.92;13.48;;;;;;;4.74;85.96;95533.41;4935070;29;20066;-77
2021/12/27 04:00:45;;;;;;;19.67;12.68;;;;;;;4.72;86.07;95538.75;4934175;29;20493;-77
2021/12/27 04:03:14;;;;;;;19.00;12.77;;;;;;;4.72;86.05;95540.50;4934916;29;20063;-78
2021/12/27 04:05:41;;;;;;;20.27;13.50;;;;;;;4.72;86.19;95548.25;4935245;29;20050;-77
2021/12/27 04:08:10;;;;;;;18.90;12.40;;;;;;;4.71;86.00;95544.09;4934806;29;20056;-78
2021/12/27 04:10:41;;;;;;;20.80;12.98;;;;;;;4.72;86.37;95545.69;4935064;29;20051;-78
2021/12/27 04:13:10;;;;;;;19.02;13.05;;;;;;;4.72;86.31;95543.09;4934966;29;20056;-77
2021/12/27 04:15:39;;;;;;;18.63;12.02;;;;;;;4.74;86.31;95552.31;4934695;29;20099;-77
2021/12/27 04:18:09;;;;;;;19.75;13.05;;;;;;;4.77;86.26;95543.41;4934648;29;20103;-77
2021/12/27 04:20:36;;;;;;;18.90;12.13;;;;;;;4.78;85.82;95542.41;4934728;29;20510;-77
2021/12/27 04:23:04;;;;;;;18.40;12.60;;;;;;;4.80;85.86;95542.25;4934708;29;20544;-77
2021/12/27 04:25:32;;;;;;;17.88;12.77;;;;;;;4.80;86.26;95535.31;4934790;29;20063;-77
2021/12/27 04:28:02;;;;;;;20.10;13.60;;;;;;;4.81;85.92;95536.94;4934635;29;20137;-77
2021/12/27 04:30:30;;;;;;;19.33;13.13;;;;;;;4.83;86.00;95540.16;4934570;29;20055;-77
2021/12/27 04:32:57;;;;;;;19.67;12.63;;;;;;;4.84;86.66;95541.75;4934978;29;20070;-77
2021/12/27 04:35:29;;;;;;;18.60;11.65;;;;;;;4.89;85.98;95542.00;4934761;29;20059;-77
2021/12/27 04:37:58;;;;;;;18.08;12.25;;;;;;;4.91;85.92;95534.91;4934566;29;20524;-77
2021/12/27 04:40:29;;;;;;;17.75;12.18;;;;;;;4.93;85.87;95529.56;4934464;29;20051;-78
2021/12/27 04:42:59;;;;;;;17.67;11.82;;;;;;;4.94;86.13;95531.97;4934677;29;20059;-78
2021/12/27 04:45:28;;;;;;;18.10;12.00;;;;;;;4.97;85.77;95530.84;4934735;29;20545;-77
2021/12/27 04:47:56;;;;;;;16.10;11.93;;;;;;;4.99;85.99;95541.00;4934473;29;20052;-77
2021/12/27 04:50:25;;;;;;;16.38;11.23;;;;;;;5.01;85.80;95546.78;4934472;29;20047;-77
2021/12/27 04:52:53;;;;;;;14.85;11.50;;;;;;;5.04;85.85;95538.69;4936503;29;20288;-78
2021/12/27 04:55:22;;;;;;;15.55;11.65;;;;;;;5.02;85.50;95536.28;4935953;29;20425;-78
2021/12/27 04:57:50;;;;;;;14.55;10.95;;;;;;;5.05;85.45;95530.78;4935648;29;20058;-78
2021/12/27 05:00:17;;;;;;;16.15;11.25;;;;;;;5.06;85.31;95529.00;4935414;29;20048;-78
2021/12/27 05:02:46;;;;;;;15.52;10.48;;;;;;;5.05;85.60;95527.38;4934617;29;20055;-78
2021/12/27 05:05:14;;;;;;;18.02;11.73;;;;;;;5.02;85.45;95527.72;4934604;29;20055;-78
2021/12/27 05:07:42;;;;;;;16.50;11.77;;;;;;;5.01;85.54;95532.09;4934299;29;20506;-77
2021/12/27 05:10:10;;;;;;;17.02;11.20;;;;;;;5.00;85.38;95519.34;4934427;29;20052;-77
2021/12/27 05:12:37;;;;;;;14.95;10.73;;;;;;;5.02;85.36;95517.38;4936314;29;20509;-79
2021/12/27 05:15:05;;;;;;;16.02;11.68;;;;;;;5.02;85.41;95518.19;4937665;29;20506;-78
2021/12/27 05:17:33;;;;;;;15.32;11.23;;;;;;;5.02;85.55;95523.34;4937469;29;20063;-77
2021/12/27 05:20:04;;;;;;;14.85;10.07;;;;;;;5.03;85.57;95519.81;4937741;29;20048;-77
2021/12/27 05:22:32;;;;;;;13.85;10.35;;;;;;;5.03;85.64;95512.06;4937702;29;20055;-77
2021/12/27 05:25:00;;;;;;;14.35;10.50;;;;;;;5.03;85.58;95517.22;4937955;29;20067;-77
2021/12/27 05:27:27;;;;;;;14.60;10.73;;;;;;;5.02;85.61;95517.38;4937531;29;20062;-77
2021/12/27 05:30:15;;;;;;;13.70;10.05;;;;;;;5.00;85.41;95516.75;4937631;29;20051;-77
2021/12/27 05:32:44;;;;;;;16.55;11.77;;;;;;;4.98;85.23;95516.13;4937460;29;20422;-77
2021/12/27 05:35:15;;;;;;;15.38;11.55;;;;;;;4.95;85.28;95512.91;4937881;29;20066;-77
2021/12/27 05:37:44;;;;;;;14.52;10.77;;;;;;;4.93;85.44;95508.88;4937718;29;20410;-77
2021/12/27 05:40:15;;;;;;;14.13;9.60;;;;;;;4.91;85.30;95506.47;4937484;29;20056;-77
2021/12/27 05:42:43;;;;;;;14.63;10.90;;;;;;;4.88;85.26;95506.84;4937701;29;20059;-77
2021/12/27 05:45:11;;;;;;;15.00;10.35;;;;;;;4.84;85.27;95508.16;4937353;29;20047;-78
2021/12/27 05:47:39;;;;;;;16.80;11.70;;;;;;;4.81;85.17;95498.16;4936822;29;20060;-78
2021/12/27 05:50:08;;;;;;;15.85;11.07;;;;;;;4.78;85.35;95495.91;4937365;29;20059;-77
2021/12/27 05:52:37;;;;;;;15.02;9.90;;;;;;;4.77;85.25;95499.50;4937478;29;20062;-77
2021/12/27 05:55:05;;;;;;;14.93;10.38;;;;;;;4.75;85.60;95502.22;4937127;29;20052;-78
2021/12/27 05:57:33;;;;;;;15.70;10.82;;;;;;;4.74;85.46;95499.81;4936596;29;20518;-78
2021/12/27 06:00:00;;;;;;;13.73;10.20;;;;;;;4.74;86.11;95497.22;4936911;29;20059;-78
2021/12/27 06:02:28;;;;;;;14.48;10.50;;;;;;;4.73;85.93;95503.38;4937218;29;20048;-78
2021/12/27 06:04:56;;;;;;;14.88;11.15;;;;;;;4.73;85.86;95498.22;4937167;29;20054;-77
2021/12/27 06:07:23;;;;;;;15.80;11.38;;;;;;;4.72;86.13;95494.84;4936852;29;20055;-77
2021/12/27 06:09:52;;;;;;;14.27;10.45;;;;;;;4.71;86.08;95493.22;4937074;29;20054;-77
2021/12/27 06:12:19;;;;;;;15.88;10.75;;;;;;;4.70;85.85;95495.97;4936995;29;20422;-77
2021/12/27 06:14:47;;;;;;;15.07;10.80;;;;;;;4.70;86.07;95498.53;4936865;29;20078;-77
2021/12/27 06:17:14;;;;;;;15.43;11.15;;;;;;;4.70;86.13;95494.22;4936809;29;20433;-78
2021/12/27 06:19:42;;;;;;;16.15;10.90;;;;;;;4.71;86.05;95495.81;4936943;29;20055;-78
2021/12/27 06:22:10;;;;;;;15.38;10.68;;;;;;;4.72;86.20;95491.44;4936891;29;20070;-77
2021/12/27 06:24:37;;;;;;;17.88;11.30;;;;;;;4.75;85.77;95491.09;4936008;29;20051;-77
2021/12/27 06:27:06;;;;;;;14.98;10.35;;;;;;;4.77;85.65;95490.91;4936463;29;20056;-78
2021/12/27 06:29:34;;;;;;;15.00;10.27;;;;;;;4.76;85.84;95492.69;4936564;29;20066;-78
2021/12/27 06:32:01;;;;;;;16.27;11.02;;;;;;;4.75;85.28;95485.94;4936687;29;20052;-77
2021/12/27 06:34:29;;;;;;;17.23;10.98;;;;;;;4.75;85.67;95497.06;4936661;29;20062;-77
2021/12/27 06:36:56;;;;;;;16.98;11.68;;;;;;;4.78;85.68;95492.53;4936214;29;20062;-77
2021/12/27 06:39:24;;;;;;;15.57;10.60;;;;;;;4.79;85.75;95487.19;4936269;29;20089;-77
2021/12/27 06:41:51;;;;;;;16.65;11.13;;;;;;;4.81;85.70;95494.75;4936219;29;20055;-77
2021/12/27 06:44:20;;;;;;;17.15;11.32;;;;;;;4.83;85.82;95487.63;4936605;29;20585;-77
2021/12/27 06:46:48;;;;;;;14.80;10.27;;;;;;;4.81;85.73;95481.84;4936175;29;20059;-77
2021/12/27 06:49:15;;;;;;;15.30;10.45;;;;;;;4.80;85.60;95478.47;4936452;29;20406;-77
2021/12/27 06:51:43;;;;;;;14.32;10.38;;;;;;;4.82;85.68;95479.09;4936302;29;20063;-78
2021/12/27 06:54:10;;;;;;;14.73;9.27;;;;;;;4.84;85.72;95481.50;4936330;29;20059;-78
2021/12/27 06:56:38;;;;;;;12.48;9.20;;;;;;;4.89;85.71;95481.78;4935821;29;20521;-78
2021/12/27 06:59:06;;;;;;;14.35;10.30;;;;;;;4.93;85.80;95483.84;4936233;29;20063;-77
2021/12/27 07:01:34;;;;;;;15.25;10.65;;;;;;;4.97;85.31;95478.34;4936960;29;20055;-78
2021/12/27 07:04:02;;;;;;;13.98;9.95;;;;;;;4.98;85.13;95479.94;4937485;29;20044;-77
2021/12/27 07:06:30;;;;;;;12.30;8.98;;;;;;;4.98;85.06;95483.31;4936255;29;20051;-77
2021/12/27 07:08:57;;;;;;;13.75;10.02;;;;;;;4.98;85.13;95483.31;4936831;29;20058;-78
2021/12/27 07:11:25;;;;;;;14.82;10.18;;;;;;;4.99;85.05;95482.34;4936924;29;20055;-77
2021/12/27 07:13:52;;;;;;;14.00;10.48;;;;;;;4.99;85.65;95476.41;4936572;29;20059;-77
2021/12/27 07:16:20;;;;;;;15.32;10.60;;;;;;;4.99;85.51;95477.19;4936056;29;20059;-78
2021/12/27 07:18:48;;;;;;;12.50;8.95;;;;;;;4.99;85.65;95484.94;4936327;29;20143;-78
2021/12/27 07:21:16;;;;;;;14.40;10.45;;;;;;;4.98;85.08;95479.94;4936604;29;20051;-78
2021/12/27 07:23:44;;;;;;;14.45;9.70;;;;;;;4.99;84.93;95476.41;4937114;29;20434;-78
2021/12/27 07:26:12;;;;;;;12.25;9.20;;;;;;;4.99;84.76;95476.41;4936153;29;20055;-78
2021/12/27 07:28:39;;;;;;;14.20;10.48;;;;;;;4.98;84.69;95469.59;4936181;29;20048;-78
2021/12/27 07:31:07;;;;;;;12.95;9.68;;;;;;;4.95;84.70;95470.75;4973538;23;20050;-79
2021/12/27 07:33:35;;;;;;;13.65;9.35;;;;;;;4.94;84.70;95476.88;4960106;29;20057;-78
2021/12/27 07:36:05;;;;;;;13.90;9.35;;;;;;;4.95;84.70;95475.94;4958347;28;20051;-80
2021/12/27 07:38:33;;;;;;;12.95;9.40;;;;;;;4.94;84.76;95482.88;4959899;29;20070;-79
2021/12/27 07:41:00;;;;;;;14.48;10.20;;;;;;;4.97;84.69;95475.75;4945968;29;20052;-79
2021/12/27 07:43:28;;;;;;;14.25;9.52;;;;;;;4.99;84.85;95471.22;4940018;29;20051;-79
2021/12/27 07:45:55;;;;;;;15.65;10.57;;;;;;;5.00;84.66;95473.63;4939663;29;20054;-79
2021/12/27 07:48:23;;;;;;;14.35;10.15;;;;;;;5.04;84.59;95474.88;4940150;29;20106;-79
2021/12/27 07:50:51;;;;;;;17.55;10.95;;;;;;;5.07;84.87;95476.31;4939819;29;20055;-78
2021/12/27 07:53:20;;;;;;;14.90;9.50;;;;;;;5.09;84.43;95482.91;4941465;29;20127;-80
2021/12/27 07:55:47;;;;;;;15.63;10.70;;;;;;;5.11;84.53;95475.78;4942145;29;20067;-80
2021/12/27 07:58:15;;;;;;;18.70;11.50;;;;;;;5.15;84.79;95476.25;4942740;29;20062;-78
2021/12/27 08:00:42;;;;;;;18.90;10.77;;;;;;;5.19;84.83;95471.53;4942736;29;20051;-79
2021/12/27 08:03:10;;;;;;;20.75;13.27;;;;;;;5.21;84.62;95467.78;4943016;29;20043;-78
2021/12/27 08:05:38;;;;;;;19.90;12.90;;;;;;;5.22;84.78;95460.81;4943314;29;20056;-78
2021/12/27 08:08:05;;;;;;;23.25;13.35;;;;;;;5.23;84.54;95463.25;4942325;29;20047;-79
2021/12/27 08:10:34;;;;;;;24.27;13.98;;;;;;;5.25;84.63;95456.13;4941833;29;20059;-78
2021/12/27 08:13:02;;;;;;;23.00;13.52;;;;;;;5.23;84.68;95442.56;4943711;29;20051;-82
2021/12/27 08:15:29;;;;;;;19.83;12.48;;;;;;;5.22;84.94;95446.09;4944682;29;20055;-80
2021/12/27 08:17:57;;;;;;;19.60;11.15;;;;;;;5.20;84.63;95439.50;4944407;29;20075;-80
2021/12/27 08:20:25;;;;;;;17.33;11.07;;;;;;;5.18;84.97;95429.34;4945776;29;20055;-79
2021/12/27 08:22:52;;;;;;;23.45;12.10;;;;;;;5.20;85.10;95436.94;4942763;29;20662;-81
2021/12/27 08:25:20;;;;;;;16.77;10.27;;;;;;;5.21;85.29;95444.53;4943139;29;20514;-80
2021/12/27 08:27:50;;;;;;;17.98;11.60;;;;;;;5.29;85.49;95469.47;4942135;29;20522;-80
2021/12/27 08:30:18;;;;;;;18.10;11.80;;;;;;;5.35;85.32;95459.22;4941995;29;20051;-81
2021/12/27 08:32:46;;;;;;;20.00;13.40;;;;;;;5.42;84.85;95466.28;4942896;29;20047;-82
2021/12/27 08:35:15;;;;;;;16.98;11.82;;;;;;;5.49;85.13;95462.03;4943333;29;20056;-80
2021/12/27 08:37:44;;;;;;;16.85;11.15;;;;;;;5.57;84.79;95459.34;4943275;29;20066;-80
2021/12/27 08:40:13;;;;;;;20.58;13.48;;;;;;;5.65;84.48;95466.22;4943589;29;20137;-82
2021/12/27 08:42:41;;;;;;;18.77;12.15;;;;;;;5.71;84.56;95461.13;4943126;29;20073;-81
2021/12/27 08:45:11;;;;;;;17.45;12.07;;;;;;;5.77;84.60;95460.41;4943677;29;20055;-80
2021/12/27 08:47:41;;;;;;;17.35;11.88;;;;;;;5.80;84.36;95464.44;4945293;29;20127;-80
2021/12/27 08:50:12;;;;;;;18.63;12.13;;;;;;;5.83;84.32;95468.44;4947069;29;20055;-80
2021/12/27 08:52:41;;;;;;;16.23;11.73;;;;;;;5.87;84.23;95464.50;4947420;29;20048;-79
2021/12/27 08:55:09;;;;;;;17.00;11.38;;;;;;;5.93;84.50;95462.00;4947071;29;20059;-79
2021/12/27 08:57:37;;;;;;;16.73;10.98;;;;;;;6.01;84.15;95458.53;4946248;29;20063;-79
2021/12/27 09:00:08;;;;;;;15.85;11.45;;;;;;;6.06;83.94;95458.81;4946416;29;20074;-79
2021/12/27 09:02:37;;;;;;;15.52;11.35;;;;;;;6.11;83.52;95461.66;4946188;29;20525;-80
2021/12/27 09:05:06;;;;;;;16.08;11.82;;;;;;;6.16;83.47;95459.31;4946179;29;20052;-80
2021/12/27 09:07:34;;;;;;;15.82;11.30;;;;;;;6.18;83.26;95457.34;4946505;29;20510;-79
2021/12/27 09:10:02;;;;;;;17.80;12.18;;;;;;;6.24;83.48;95457.59;4945614;29;20052;-79
2021/12/27 09:12:29;;;;;;;17.80;12.23;;;;;;;6.31;83.28;95446.31;4946059;29;20051;-78
2021/12/27 09:14:57;;;;;;;17.40;12.65;;;;;;;6.40;83.25;95452.19;4944121;29;20051;-78
2021/12/27 09:17:24;;;;;;;15.20;10.70;;;;;;;6.49;83.00;95453.66;4941980;29;20506;-79
2021/12/27 09:19:53;;;;;;;15.40;10.90;;;;;;;6.58;82.58;95462.94;4945658;29;20107;-84
2021/12/27 09:22:21;;;;;;;16.23;11.63;;;;;;;6.70;82.46;95459.88;4944863;29;20055;-81
2021/12/27 09:24:50;;;;;;;16.13;11.85;;;;;;;6.80;81.92;95465.56;4945115;29;20052;-78
2021/12/27 09:27:18;;;;;;;17.23;12.05;;;;;;;6.85;81.87;95468.38;4944937;29;20051;-81
2021/12/27 09:29:46;;;;;;;15.13;11.13;;;;;;;6.89;81.72;95464.44;4945968;29;20070;-80
2021/12/27 09:32:14;;;;;;;14.70;10.52;;;;;;;6.94;81.40;95467.25;4945048;29;20059;-81
2021/12/27 09:34:42;;;;;;;16.75;12.32;;;;;;;6.97;81.28;95464.28;4945297;29;20052;-78
2021/12/27 09:37:11;;;;;;;13.35;10.27;;;;;;;6.95;80.81;95474.06;4945566;29;20060;-78
2021/12/27 09:39:38;;;;;;;14.18;10.90;;;;;;;6.92;81.18;95471.03;4945453;29;20051;-79
2021/12/27 09:42:06;;;;;;;20.05;12.20;;;;;;;6.88;81.22;95468.00;4945510;29;20540;-78
2021/12/27 09:44:34;;;;;;;15.15;11.00;;;;;;;6.83;81.12;95464.38;4945709;29;20055;-80
2021/12/27 09:47:02;;;;;;;14.38;10.43;;;;;;;6.83;81.17;95465.16;4945480;29;20063;-80
2021/12/27 09:49:30;;;;;;;13.23;9.68;;;;;;;6.86;81.21;95461.41;4946026;29;20059;-79
2021/12/27 09:51:59;;;;;;;13.70;10.52;;;;;;;6.89;81.02;95458.44;4944776;29;20059;-80
2021/12/27 09:54:29;;;;;;;12.70;9.52;;;;;;;6.95;80.68;95462.88;4945825;29;20047;-78
2021/12/27 09:56:57;;;;;;;11.27;9.35;;;;;;;7.05;80.65;95459.97;4944584;29;20047;-79
2021/12/27 09:59:25;;;;;;;10.57;8.50;;;;;;;7.15;80.88;95466.44;4943363;29;20509;-78
2021/12/27 10:01:53;;;;;;;11.50;9.68;;;;;;;7.24;80.53;95456.72;4945157;29;20056;-80
2021/12/27 10:04:22;;;;;;;13.43;9.70;;;;;;;7.34;80.01;95449.38;4944435;29;20094;-80
2021/12/27 10:06:49;;;;;;;14.65;9.63;;;;;;;7.35;79.59;95447.63;4944588;29;20063;-79
2021/12/27 10:09:17;;;;;;;14.73;10.48;;;;;;;7.37;79.68;95430.88;4943655;29;20440;-81
2021/12/27 10:11:47;;;;;;;15.35;10.10;;;;;;;7.42;79.14;95431.09;4943110;29;20062;-80
2021/12/27 10:14:16;;;;;;;14.35;10.25;;;;;;;7.43;78.86;95422.31;4943829;29;20056;-79
2021/12/27 10:16:47;;;;;;;14.25;10.57;;;;;;;7.44;78.89;95412.75;4945246;29;20047;-79
2021/12/27 10:19:16;;;;;;;14.68;10.63;;;;;;;7.47;79.33;95419.34;4941626;29;20044;-78
2021/12/27 10:21:45;;;;;;;12.38;9.90;;;;;;;7.45;79.19;95414.34;4941763;29;20062;-81
2021/12/27 10:24:15;;;;;;;14.57;11.05;;;;;;;7.41;79.72;95415.72;4941186;29;20054;-78
2021/12/27 10:26:44;;;;;;;14.60;9.40;;;;;;;7.39;79.51;95428.88;4943418;29;20142;-77
2021/12/27 10:29:16;;;;;;;11.95;9.82;;;;;;;7.38;79.25;95426.47;4941129;29;20063;-77
2021/12/27 10:31:54;;;;;;;;;;;;;;;7.44;79.43;95425.72;4943784;29;20059;-79
2021/12/27 10:34:23;;;;;;;11.38;9.30;;;;;;;7.47;79.12;95420.13;4943661;29;19923;-80
2021/12/27 10:36:59;;;;;;;13.90;10.25;;;;;;;7.53;79.19;95414.19;4942577;29;20548;-77
2021/12/27 10:39:30;;;;;;;13.48;10.05;;;;;;;7.59;78.82;95417.81;4939911;29;20051;-78
2021/12/27 10:42:08;;;;;;;15.15;10.90;;;;;;;7.58;78.81;95409.22;4942402;29;20062;-79
2021/12/27 10:44:38;;;;;;;14.65;11.10;;;;;;;7.57;78.93;95412.81;4941658;29;20055;-80
2021/12/27 10:47:24;;;;;;;14.50;11.30;;;;;;;7.57;78.19;95399.03;4941327;29;20502;-78
2021/12/27 10:49:52;;;;;;;12.63;9.55;;;;;;;7.53;78.21;95403.00;4940885;29;20059;-79
2021/12/27 10:52:20;;;;;;;14.20;10.70;;;;;;;7.46;78.20;95402.97;4941304;29;20051;-77
2021/12/27 10:54:49;;;;;;;16.13;12.18;;;;;;;7.40;78.65;95404.53;4941684;29;20047;-77
2021/12/27 10:57:26;;;;;;;12.60;10.23;;;;;;;7.38;78.37;95405.72;4940330;29;20056;-81
2021/12/27 11:00:15;;;;;;;16.25;12.23;;;;;;;7.35;78.58;95403.53;4940314;29;20054;-77
2021/12/27 11:02:43;;;;;;;15.70;11.10;;;;;;;7.29;78.61;95386.91;4941049;29;20051;-77
2021/12/27 11:05:12;;;;;;;15.38;12.07;;;;;;;7.24;78.94;95391.88;4941154;29;20580;-78
2021/12/27 11:07:41;;;;;;;12.98;10.75;;;;;;;7.24;78.91;95391.88;4941284;29;20059;-78
2021/12/27 11:10:08;;;;;;;15.32;10.07;;;;;;;7.29;78.87;95386.91;4941060;29;20059;-76
2021/12/27 11:12:36;;;;;;;13.45;10.32;;;;;;;7.34;78.59;95384.53;4941038;29;20051;-77
2021/12/27 11:15:09;;;;;;;15.00;10.95;;;;;;;7.42;78.41;95381.00;4944415;29;20047;-80
2021/12/27 11:17:39;;;;;;;14.23;10.63;;;;;;;7.51;78.63;95379.06;4944490;29;20055;-79
2021/12/27 11:20:09;;;;;;;15.20;11.35;;;;;;;7.58;78.52;95385.84;4944350;29;20060;-81
2021/12/27 11:22:39;;;;;;;15.40;11.38;;;;;;;7.66;78.88;95377.13;4943605;29;20502;-80
2021/12/27 11:25:09;;;;;;;15.98;11.05;;;;;;;7.69;78.36;95381.13;4943148;29;20044;-78
2021/12/27 11:27:37;;;;;;;14.75;10.80;;;;;;;7.70;78.36;95372.34;4943211;29;20056;-78
2021/12/27 11:30:11;;;;;;;14.05;10.90;;;;;;;7.71;78.43;95368.75;4941887;29;20052;-79
2021/12/27 11:33:00;;;;;;;13.93;10.52;;;;;;;7.74;77.89;95368.34;4942183;29;20102;-79
2021/12/27 11:35:32;;;;;;;12.63;9.82;;;;;;;7.74;78.02;95365.75;4941487;29;20419;-77